ムルマンスク の空港の天気 - METARとTAF

ムルマンスク空港 ( ULMM / MMK ) - ロシア ムルマンスク
飛行場実況気象(Metar)
観測時間08/11 09:30 MSK (08/11 06:30 UTC)
風向・風速北西 2m/s
視程3000m
天気現象弱いしゅう雨
少しの雲 雲底高度 240m
全天の8割程度の雲 雲底高度 490m
気温9℃
湿度93%
気圧1025hPa
METARULMM 110630Z 32002MPS 3000 -SHRA FEW008 BKN016CB 09/08 Q1025 R31/190065 NOSIG RMK OBST OBSC QFE761
過去の天気等 Google飛行場航空写真 Wunderground天気予報

過去48時間のMETAR

飛行場予報(TAF)
発表時間: 8/11 07:50 MSK (8/11 04:50 UTC)
予報対象時間: 11日9時 MSK ~ 12日9時 MSK
風向・風速北北西 3m/s 瞬間風速 8m/s
視程10km以上
全天の8割程度の雲 雲底高度 490m
11日9時 MSK ~ 11日17時 MSK に一時的に
風向・風速北 5m/s 瞬間風速 10m/s
視程5000m
天気現象弱いしゅう雨
全天の4割程度の雲 雲底高度 340m
全天の8割程度の積乱雲 雲底高度 490m
11日17時 MSK ~ 11日24時 MSK に一時的に
風向・風速北 3m/s
12日0時 MSK ~ 12日9時 MSK に一時的に
風向・風速不定 1m/s
全天の8割程度の雲 雲底高度 340m
全天の8割程度の雲 雲底高度 490m
TAF ULMM 110450Z 1106/1206 34003G08MPS 9999 BKN016
TEMPO 1106/1114 36005G10MPS 5000 -SHRA SCT011 BKN016CB
TEMPO 1114/1121 01003MPS
TEMPO 1121/1206 VRB01MPS BKN011 BKN016